sensor_id;sensor_type;location;lat;lon;timestamp;P1;durP1;ratioP1;P2;durP2;ratioP2
46889;SDS011;32625;51.080;16.970;2024-03-23T00:53:59;44.20;;;26.08;;
46889;SDS011;32625;51.080;16.970;2024-03-23T00:56:25;41.33;;;24.75;;
46889;SDS011;32625;51.080;16.970;2024-03-23T00:58:51;41.30;;;25.92;;
46889;SDS011;32625;51.080;16.970;2024-03-23T01:01:17;39.60;;;23.98;;
46889;SDS011;32625;51.080;16.970;2024-03-23T01:03:43;39.00;;;23.00;;
46889;SDS011;32625;51.080;16.970;2024-03-23T01:06:09;39.95;;;22.80;;
46889;SDS011;32625;51.080;16.970;2024-03-23T01:08:35;33.88;;;22.58;;
46889;SDS011;32625;51.080;16.970;2024-03-23T01:11:01;38.63;;;23.50;;
46889;SDS011;32625;51.080;16.970;2024-03-23T01:13:28;40.38;;;25.27;;
46889;SDS011;32625;51.080;16.970;2024-03-23T01:15:55;39.30;;;24.08;;
46889;SDS011;32625;51.080;16.970;2024-03-23T01:18:22;41.58;;;25.20;;
46889;SDS011;32625;51.080;16.970;2024-03-23T01:20:48;38.33;;;24.73;;
46889;SDS011;32625;51.080;16.970;2024-03-23T01:23:15;37.75;;;24.95;;
46889;SDS011;32625;51.080;16.970;2024-03-23T01:25:41;39.78;;;23.65;;
46889;SDS011;32625;51.080;16.970;2024-03-23T01:28:08;38.83;;;24.45;;
46889;SDS011;32625;51.080;16.970;2024-03-23T01:30:34;38.38;;;22.98;;
46889;SDS011;32625;51.080;16.970;2024-03-23T01:33:00;39.00;;;23.65;;
46889;SDS011;32625;51.080;16.970;2024-03-23T01:35:28;38.10;;;23.33;;
46889;SDS011;32625;51.080;16.970;2024-03-23T01:37:55;36.05;;;24.23;;
46889;SDS011;32625;51.080;16.970;2024-03-23T01:40:20;36.55;;;24.27;;
46889;SDS011;32625;51.080;16.970;2024-03-23T01:42:56;40.25;;;23.30;;
46889;SDS011;32625;51.080;16.970;2024-03-23T01:45:23;33.85;;;22.33;;
46889;SDS011;32625;51.080;16.970;2024-03-23T01:47:50;33.75;;;21.85;;
46889;SDS011;32625;51.080;16.970;2024-03-23T01:50:19;31.08;;;20.10;;
46889;SDS011;32625;51.080;16.970;2024-03-23T01:52:47;29.83;;;20.20;;
46889;SDS011;32625;51.080;16.970;2024-03-23T01:55:13;30.73;;;18.73;;
46889;SDS011;32625;51.080;16.970;2024-03-23T01:57:40;25.55;;;18.45;;
46889;SDS011;32625;51.080;16.970;2024-03-23T02:00:06;27.70;;;18.15;;
46889;SDS011;32625;51.080;16.970;2024-03-23T02:02:45;25.88;;;17.23;;
46889;SDS011;32625;51.080;16.970;2024-03-23T02:05:11;28.27;;;17.65;;
46889;SDS011;32625;51.080;16.970;2024-03-23T02:07:38;26.42;;;18.42;;
46889;SDS011;32625;51.080;16.970;2024-03-23T02:10:09;27.88;;;17.63;;
46889;SDS011;32625;51.080;16.970;2024-03-23T02:12:36;25.60;;;16.95;;
46889;SDS011;32625;51.080;16.970;2024-03-23T02:15:03;28.33;;;17.65;;
46889;SDS011;32625;51.080;16.970;2024-03-23T02:17:30;29.70;;;17.25;;
46889;SDS011;32625;51.080;16.970;2024-03-23T02:19:57;28.40;;;16.50;;
46889;SDS011;32625;51.080;16.970;2024-03-23T02:22:23;24.80;;;17.30;;
46889;SDS011;32625;51.080;16.970;2024-03-23T02:24:49;30.40;;;18.60;;
46889;SDS011;32625;51.080;16.970;2024-03-23T02:27:15;24.55;;;17.58;;
46889;SDS011;32625;51.080;16.970;2024-03-23T02:29:41;25.65;;;17.13;;
46889;SDS011;32625;51.080;16.970;2024-03-23T02:32:07;25.73;;;18.17;;
46889;SDS011;32625;51.080;16.970;2024-03-23T02:34:34;26.10;;;17.77;;
46889;SDS011;32625;51.080;16.970;2024-03-23T02:37:01;26.42;;;17.70;;
46889;SDS011;32625;51.080;16.970;2024-03-23T02:39:28;26.48;;;16.90;;
46889;SDS011;32625;51.080;16.970;2024-03-23T02:41:54;24.80;;;16.83;;
46889;SDS011;32625;51.080;16.970;2024-03-23T02:44:20;27.38;;;18.35;;
46889;SDS011;32625;51.080;16.970;2024-03-23T02:46:46;25.35;;;17.25;;
46889;SDS011;32625;51.080;16.970;2024-03-23T02:49:12;24.95;;;17.02;;
46889;SDS011;32625;51.080;16.970;2024-03-23T02:51:39;28.90;;;19.30;;
46889;SDS011;32625;51.080;16.970;2024-03-23T02:54:06;28.27;;;17.65;;
46889;SDS011;32625;51.080;16.970;2024-03-23T02:56:32;26.92;;;18.50;;
46889;SDS011;32625;51.080;16.970;2024-03-23T02:58:58;26.55;;;17.67;;
46889;SDS011;32625;51.080;16.970;2024-03-23T03:01:25;29.15;;;18.67;;
46889;SDS011;32625;51.080;16.970;2024-03-23T03:03:51;27.02;;;18.98;;
46889;SDS011;32625;51.080;16.970;2024-03-23T03:06:24;27.88;;;18.60;;
46889;SDS011;32625;51.080;16.970;2024-03-23T03:08:50;29.30;;;18.90;;
46889;SDS011;32625;51.080;16.970;2024-03-23T03:11:17;26.23;;;17.52;;
46889;SDS011;32625;51.080;16.970;2024-03-23T03:13:43;25.42;;;17.85;;
46889;SDS011;32625;51.080;16.970;2024-03-23T03:16:12;26.80;;;18.42;;
46889;SDS011;32625;51.080;16.970;2024-03-23T03:18:38;28.50;;;18.33;;
46889;SDS011;32625;51.080;16.970;2024-03-23T03:21:06;26.77;;;18.65;;
46889;SDS011;32625;51.080;16.970;2024-03-23T03:23:36;28.17;;;18.35;;
46889;SDS011;32625;51.080;16.970;2024-03-23T03:26:03;27.08;;;18.10;;
46889;SDS011;32625;51.080;16.970;2024-03-23T03:28:33;25.27;;;17.55;;
46889;SDS011;32625;51.080;16.970;2024-03-23T03:31:00;29.05;;;17.88;;
46889;SDS011;32625;51.080;16.970;2024-03-23T03:33:27;28.90;;;17.55;;
46889;SDS011;32625;51.080;16.970;2024-03-23T03:35:53;27.17;;;18.58;;
46889;SDS011;32625;51.080;16.970;2024-03-23T03:38:19;25.95;;;18.08;;
46889;SDS011;32625;51.080;16.970;2024-03-23T03:40:45;27.10;;;17.65;;
46889;SDS011;32625;51.080;16.970;2024-03-23T03:43:11;24.20;;;16.75;;
46889;SDS011;32625;51.080;16.970;2024-03-23T03:45:37;27.25;;;17.88;;
46889;SDS011;32625;51.080;16.970;2024-03-23T03:48:03;27.98;;;18.85;;
46889;SDS011;32625;51.080;16.970;2024-03-23T03:50:30;26.02;;;17.80;;
46889;SDS011;32625;51.080;16.970;2024-03-23T03:52:56;26.52;;;18.15;;
46889;SDS011;32625;51.080;16.970;2024-03-23T03:55:22;25.38;;;17.42;;
46889;SDS011;32625;51.080;16.970;2024-03-23T03:57:47;26.08;;;17.92;;
46889;SDS011;32625;51.080;16.970;2024-03-23T04:00:14;25.65;;;18.13;;
46889;SDS011;32625;51.080;16.970;2024-03-23T04:02:40;27.45;;;18.58;;
46889;SDS011;32625;51.080;16.970;2024-03-23T04:05:06;25.98;;;17.67;;
46889;SDS011;32625;51.080;16.970;2024-03-23T04:07:33;25.25;;;18.45;;
46889;SDS011;32625;51.080;16.970;2024-03-23T04:10:00;23.92;;;17.67;;
46889;SDS011;32625;51.080;16.970;2024-03-23T04:12:26;24.10;;;17.75;;
46889;SDS011;32625;51.080;16.970;2024-03-23T04:14:52;24.92;;;18.00;;
46889;SDS011;32625;51.080;16.970;2024-03-23T04:17:18;26.35;;;17.73;;
46889;SDS011;32625;51.080;16.970;2024-03-23T04:19:44;26.40;;;17.73;;
46889;SDS011;32625;51.080;16.970;2024-03-23T04:22:12;24.63;;;17.80;;
46889;SDS011;32625;51.080;16.970;2024-03-23T04:24:38;28.10;;;17.67;;
46889;SDS011;32625;51.080;16.970;2024-03-23T04:27:04;30.48;;;19.92;;
46889;SDS011;32625;51.080;16.970;2024-03-23T04:29:30;29.40;;;18.98;;
46889;SDS011;32625;51.080;16.970;2024-03-23T04:31:56;25.08;;;18.08;;
46889;SDS011;32625;51.080;16.970;2024-03-23T04:34:23;24.38;;;17.13;;
46889;SDS011;32625;51.080;16.970;2024-03-23T04:36:49;24.85;;;17.73;;
46889;SDS011;32625;51.080;16.970;2024-03-23T04:39:15;28.35;;;17.60;;
46889;SDS011;32625;51.080;16.970;2024-03-23T04:41:41;27.92;;;17.95;;
46889;SDS011;32625;51.080;16.970;2024-03-23T04:44:07;30.13;;;18.90;;
46889;SDS011;32625;51.080;16.970;2024-03-23T04:46:33;26.08;;;18.02;;
46889;SDS011;32625;51.080;16.970;2024-03-23T04:48:58;26.27;;;18.38;;
46889;SDS011;32625;51.080;16.970;2024-03-23T04:51:24;25.08;;;16.52;;
46889;SDS011;32625;51.080;16.970;2024-03-23T04:53:51;24.50;;;17.00;;
46889;SDS011;32625;51.080;16.970;2024-03-23T04:56:18;24.48;;;17.63;;
46889;SDS011;32625;51.080;16.970;2024-03-23T04:58:44;28.80;;;18.27;;
46889;SDS011;32625;51.080;16.970;2024-03-23T05:01:11;27.30;;;18.25;;
46889;SDS011;32625;51.080;16.970;2024-03-23T05:03:37;33.08;;;17.13;;
46889;SDS011;32625;51.080;16.970;2024-03-23T05:06:04;25.15;;;17.17;;
46889;SDS011;32625;51.080;16.970;2024-03-23T05:08:30;28.80;;;17.92;;
46889;SDS011;32625;51.080;16.970;2024-03-23T05:10:57;27.73;;;18.17;;
46889;SDS011;32625;51.080;16.970;2024-03-23T05:13:23;24.02;;;17.17;;
46889;SDS011;32625;51.080;16.970;2024-03-23T05:15:55;24.42;;;16.88;;
46889;SDS011;32625;51.080;16.970;2024-03-23T05:18:21;24.95;;;17.38;;
46889;SDS011;32625;51.080;16.970;2024-03-23T05:20:47;28.63;;;18.05;;
46889;SDS011;32625;51.080;16.970;2024-03-23T05:23:13;24.55;;;17.52;;
46889;SDS011;32625;51.080;16.970;2024-03-23T05:25:39;25.48;;;17.48;;
46889;SDS011;32625;51.080;16.970;2024-03-23T05:28:05;26.15;;;17.95;;
46889;SDS011;32625;51.080;16.970;2024-03-23T05:30:32;25.17;;;18.38;;
46889;SDS011;32625;51.080;16.970;2024-03-23T05:32:58;25.73;;;17.58;;
46889;SDS011;32625;51.080;16.970;2024-03-23T05:35:24;25.27;;;18.00;;
46889;SDS011;32625;51.080;16.970;2024-03-23T05:37:50;26.85;;;18.20;;
46889;SDS011;32625;51.080;16.970;2024-03-23T05:40:16;34.72;;;19.50;;
46889;SDS011;32625;51.080;16.970;2024-03-23T05:42:42;24.75;;;18.13;;
46889;SDS011;32625;51.080;16.970;2024-03-23T05:45:08;27.70;;;18.90;;
46889;SDS011;32625;51.080;16.970;2024-03-23T05:47:34;24.35;;;18.17;;
46889;SDS011;32625;51.080;16.970;2024-03-23T05:50:00;32.15;;;18.40;;
46889;SDS011;32625;51.080;16.970;2024-03-23T05:52:27;26.58;;;17.98;;
46889;SDS011;32625;51.080;16.970;2024-03-23T05:54:54;23.73;;;17.38;;
46889;SDS011;32625;51.080;16.970;2024-03-23T05:57:19;23.40;;;17.70;;
46889;SDS011;32625;51.080;16.970;2024-03-23T05:59:45;29.73;;;18.50;;
46889;SDS011;32625;51.080;16.970;2024-03-23T06:02:12;25.70;;;17.92;;
46889;SDS011;32625;51.080;16.970;2024-03-23T06:04:38;26.80;;;19.08;;
46889;SDS011;32625;51.080;16.970;2024-03-23T06:07:04;27.02;;;18.80;;
46889;SDS011;32625;51.080;16.970;2024-03-23T06:09:39;26.30;;;18.65;;
46889;SDS011;32625;51.080;16.970;2024-03-23T06:12:08;25.80;;;18.25;;
46889;SDS011;32625;51.080;16.970;2024-03-23T06:14:34;27.73;;;18.58;;
46889;SDS011;32625;51.080;16.970;2024-03-23T06:17:00;29.10;;;18.30;;
46889;SDS011;32625;51.080;16.970;2024-03-23T06:19:27;29.88;;;18.40;;
46889;SDS011;32625;51.080;16.970;2024-03-23T06:21:56;29.90;;;19.95;;
46889;SDS011;32625;51.080;16.970;2024-03-23T06:24:22;27.02;;;19.52;;
46889;SDS011;32625;51.080;16.970;2024-03-23T06:26:48;30.92;;;19.73;;
46889;SDS011;32625;51.080;16.970;2024-03-23T06:29:14;30.48;;;21.02;;
46889;SDS011;32625;51.080;16.970;2024-03-23T06:31:40;31.10;;;21.40;;
46889;SDS011;32625;51.080;16.970;2024-03-23T06:34:06;32.75;;;22.10;;
46889;SDS011;32625;51.080;16.970;2024-03-23T06:36:32;29.80;;;21.75;;
46889;SDS011;32625;51.080;16.970;2024-03-23T06:38:58;31.15;;;21.70;;
46889;SDS011;32625;51.080;16.970;2024-03-23T06:41:25;30.10;;;20.77;;
46889;SDS011;32625;51.080;16.970;2024-03-23T06:43:51;28.38;;;20.20;;
46889;SDS011;32625;51.080;16.970;2024-03-23T06:46:17;30.45;;;20.52;;
46889;SDS011;32625;51.080;16.970;2024-03-23T06:48:44;30.38;;;20.33;;
46889;SDS011;32625;51.080;16.970;2024-03-23T06:51:11;33.05;;;21.33;;
46889;SDS011;32625;51.080;16.970;2024-03-23T06:53:37;28.10;;;19.02;;
46889;SDS011;32625;51.080;16.970;2024-03-23T06:56:03;26.73;;;19.80;;
46889;SDS011;32625;51.080;16.970;2024-03-23T06:58:29;29.35;;;20.10;;
46889;SDS011;32625;51.080;16.970;2024-03-23T07:00:55;28.83;;;21.05;;
46889;SDS011;32625;51.080;16.970;2024-03-23T07:03:21;28.40;;;19.23;;
46889;SDS011;32625;51.080;16.970;2024-03-23T07:05:47;24.92;;;18.38;;
46889;SDS011;32625;51.080;16.970;2024-03-23T07:08:13;28.88;;;18.83;;
46889;SDS011;32625;51.080;16.970;2024-03-23T07:10:44;24.50;;;18.20;;
46889;SDS011;32625;51.080;16.970;2024-03-23T07:13:10;27.65;;;20.10;;
46889;SDS011;32625;51.080;16.970;2024-03-23T07:15:36;28.75;;;19.83;;
46889;SDS011;32625;51.080;16.970;2024-03-23T07:18:02;25.85;;;20.48;;
46889;SDS011;32625;51.080;16.970;2024-03-23T07:20:28;26.77;;;18.90;;
46889;SDS011;32625;51.080;16.970;2024-03-23T07:22:56;25.80;;;19.23;;
46889;SDS011;32625;51.080;16.970;2024-03-23T07:25:22;23.65;;;17.40;;
46889;SDS011;32625;51.080;16.970;2024-03-23T07:27:50;25.38;;;17.70;;
46889;SDS011;32625;51.080;16.970;2024-03-23T07:30:16;25.27;;;17.50;;
46889;SDS011;32625;51.080;16.970;2024-03-23T07:32:44;23.45;;;17.77;;
46889;SDS011;32625;51.080;16.970;2024-03-23T07:35:10;21.83;;;16.23;;
46889;SDS011;32625;51.080;16.970;2024-03-23T07:37:36;23.75;;;16.98;;
46889;SDS011;32625;51.080;16.970;2024-03-23T07:40:03;24.42;;;18.70;;
46889;SDS011;32625;51.080;16.970;2024-03-23T07:42:29;22.33;;;16.25;;
46889;SDS011;32625;51.080;16.970;2024-03-23T07:44:55;19.42;;;16.65;;
46889;SDS011;32625;51.080;16.970;2024-03-23T07:47:22;21.15;;;15.85;;
46889;SDS011;32625;51.080;16.970;2024-03-23T07:49:48;21.83;;;16.30;;
46889;SDS011;32625;51.080;16.970;2024-03-23T07:52:14;24.42;;;16.50;;
46889;SDS011;32625;51.080;16.970;2024-03-23T07:54:40;23.33;;;16.42;;
46889;SDS011;32625;51.080;16.970;2024-03-23T07:57:06;20.08;;;14.85;;
46889;SDS011;32625;51.080;16.970;2024-03-23T07:59:32;22.25;;;14.15;;
46889;SDS011;32625;51.080;16.970;2024-03-23T08:01:59;20.10;;;14.75;;
46889;SDS011;32625;51.080;16.970;2024-03-23T08:04:26;19.15;;;14.55;;
46889;SDS011;32625;51.080;16.970;2024-03-23T08:06:53;18.33;;;14.18;;
46889;SDS011;32625;51.080;16.970;2024-03-23T08:09:19;18.17;;;14.05;;
46889;SDS011;32625;51.080;16.970;2024-03-23T08:11:44;20.52;;;14.43;;
46889;SDS011;32625;51.080;16.970;2024-03-23T08:14:12;19.50;;;14.00;;
46889;SDS011;32625;51.080;16.970;2024-03-23T08:16:38;22.23;;;15.05;;
46889;SDS011;32625;51.080;16.970;2024-03-23T08:19:04;22.65;;;14.35;;
46889;SDS011;32625;51.080;16.970;2024-03-23T08:21:30;21.63;;;16.20;;
46889;SDS011;32625;51.080;16.970;2024-03-23T08:23:56;17.90;;;14.10;;
46889;SDS011;32625;51.080;16.970;2024-03-23T08:26:22;19.90;;;14.10;;
46889;SDS011;32625;51.080;16.970;2024-03-23T08:28:48;15.55;;;12.07;;
46889;SDS011;32625;51.080;16.970;2024-03-23T08:31:14;18.75;;;14.32;;
46889;SDS011;32625;51.080;16.970;2024-03-23T08:33:40;18.55;;;13.85;;
46889;SDS011;32625;51.080;16.970;2024-03-23T08:36:08;18.00;;;13.85;;
46889;SDS011;32625;51.080;16.970;2024-03-23T08:38:39;18.60;;;13.90;;
46889;SDS011;32625;51.080;16.970;2024-03-23T08:41:06;17.95;;;13.07;;
46889;SDS011;32625;51.080;16.970;2024-03-23T08:43:37;16.70;;;13.68;;
46889;SDS011;32625;51.080;16.970;2024-03-23T08:46:11;18.10;;;14.27;;
46889;SDS011;32625;51.080;16.970;2024-03-23T08:48:42;17.23;;;12.88;;
46889;SDS011;32625;51.080;16.970;2024-03-23T08:51:11;23.58;;;13.63;;
46889;SDS011;32625;51.080;16.970;2024-03-23T08:53:38;17.05;;;13.27;;
46889;SDS011;32625;51.080;16.970;2024-03-23T08:56:04;14.60;;;12.27;;
46889;SDS011;32625;51.080;16.970;2024-03-23T08:58:32;16.48;;;12.20;;
46889;SDS011;32625;51.080;16.970;2024-03-23T09:03:34;15.98;;;12.85;;
46889;SDS011;32625;51.080;16.970;2024-03-23T09:06:02;17.42;;;12.32;;
46889;SDS011;32625;51.080;16.970;2024-03-23T09:08:32;16.70;;;12.25;;
46889;SDS011;32625;51.080;16.970;2024-03-23T09:11:00;12.65;;;11.23;;
46889;SDS011;32625;51.080;16.970;2024-03-23T09:13:32;17.52;;;12.20;;
46889;SDS011;32625;51.080;16.970;2024-03-23T09:15:59;18.67;;;12.15;;
46889;SDS011;32625;51.080;16.970;2024-03-23T09:18:25;13.65;;;11.75;;
46889;SDS011;32625;51.080;16.970;2024-03-23T09:20:51;15.02;;;11.85;;
46889;SDS011;32625;51.080;16.970;2024-03-23T09:23:19;15.80;;;11.63;;
46889;SDS011;32625;51.080;16.970;2024-03-23T09:25:46;14.90;;;12.63;;
46889;SDS011;32625;51.080;16.970;2024-03-23T09:28:13;16.42;;;12.30;;
46889;SDS011;32625;51.080;16.970;2024-03-23T09:30:38;15.95;;;11.70;;
46889;SDS011;32625;51.080;16.970;2024-03-23T09:33:11;15.45;;;11.27;;
46889;SDS011;32625;51.080;16.970;2024-03-23T09:35:38;14.63;;;11.65;;
46889;SDS011;32625;51.080;16.970;2024-03-23T09:38:08;16.50;;;11.18;;
46889;SDS011;32625;51.080;16.970;2024-03-23T09:40:41;16.23;;;11.13;;
46889;SDS011;32625;51.080;16.970;2024-03-23T09:43:07;13.82;;;10.80;;
46889;SDS011;32625;51.080;16.970;2024-03-23T09:45:35;14.00;;;11.00;;
46889;SDS011;32625;51.080;16.970;2024-03-23T09:48:08;12.82;;;9.95;;
46889;SDS011;32625;51.080;16.970;2024-03-23T09:50:38;13.25;;;11.48;;
46889;SDS011;32625;51.080;16.970;2024-03-23T09:53:08;15.07;;;11.27;;
46889;SDS011;32625;51.080;16.970;2024-03-23T09:55:36;16.60;;;10.48;;
46889;SDS011;32625;51.080;16.970;2024-03-23T09:58:03;12.95;;;10.40;;
46889;SDS011;32625;51.080;16.970;2024-03-23T10:00:34;13.27;;;10.60;;
46889;SDS011;32625;51.080;16.970;2024-03-23T10:03:01;15.18;;;10.80;;
46889;SDS011;32625;51.080;16.970;2024-03-23T10:05:28;15.52;;;10.48;;
46889;SDS011;32625;51.080;16.970;2024-03-23T10:07:55;12.00;;;10.02;;
46889;SDS011;32625;51.080;16.970;2024-03-23T10:10:20;13.52;;;10.55;;
46889;SDS011;32625;51.080;16.970;2024-03-23T10:12:47;15.65;;;10.00;;
46889;SDS011;32625;51.080;16.970;2024-03-23T10:15:18;12.63;;;10.30;;
46889;SDS011;32625;51.080;16.970;2024-03-23T10:17:46;11.98;;;10.68;;
46889;SDS011;32625;51.080;16.970;2024-03-23T10:20:12;11.15;;;9.93;;
46889;SDS011;32625;51.080;16.970;2024-03-23T10:22:38;15.45;;;10.93;;
46889;SDS011;32625;51.080;16.970;2024-03-23T10:25:08;20.48;;;11.40;;
46889;SDS011;32625;51.080;16.970;2024-03-23T10:27:36;10.45;;;9.35;;
46889;SDS011;32625;51.080;16.970;2024-03-23T10:32:38;11.07;;;9.60;;
46889;SDS011;32625;51.080;16.970;2024-03-23T10:35:13;10.80;;;8.85;;
46889;SDS011;32625;51.080;16.970;2024-03-23T10:37:40;13.85;;;9.85;;
46889;SDS011;32625;51.080;16.970;2024-03-23T10:40:09;12.02;;;9.98;;
46889;SDS011;32625;51.080;16.970;2024-03-23T10:42:37;14.52;;;10.30;;
46889;SDS011;32625;51.080;16.970;2024-03-23T10:45:04;13.02;;;9.82;;
46889;SDS011;32625;51.080;16.970;2024-03-23T10:47:31;11.18;;;9.60;;
46889;SDS011;32625;51.080;16.970;2024-03-23T10:49:57;11.77;;;9.50;;
46889;SDS011;32625;51.080;16.970;2024-03-23T10:52:23;14.75;;;10.43;;
46889;SDS011;32625;51.080;16.970;2024-03-23T10:54:51;14.80;;;10.43;;
46889;SDS011;32625;51.080;16.970;2024-03-23T10:57:17;13.18;;;10.02;;
46889;SDS011;32625;51.080;16.970;2024-03-23T10:59:46;14.48;;;9.90;;
46889;SDS011;32625;51.080;16.970;2024-03-23T11:02:19;13.07;;;9.90;;
46889;SDS011;32625;51.080;16.970;2024-03-23T11:04:46;15.32;;;10.38;;
46889;SDS011;32625;51.080;16.970;2024-03-23T11:09:50;14.20;;;10.00;;
46889;SDS011;32625;51.080;16.970;2024-03-23T11:17:26;12.32;;;9.52;;
46889;SDS011;32625;51.080;16.970;2024-03-23T11:19:53;12.18;;;9.60;;
46889;SDS011;32625;51.080;16.970;2024-03-23T11:25:24;12.73;;;8.88;;
46889;SDS011;32625;51.080;16.970;2024-03-23T11:27:50;9.50;;;8.32;;
46889;SDS011;32625;51.080;16.970;2024-03-23T11:32:49;10.88;;;6.63;;
46889;SDS011;32625;51.080;16.970;2024-03-23T11:40:35;8.40;;;6.63;;
46889;SDS011;32625;51.080;16.970;2024-03-23T11:43:06;9.68;;;6.57;;
46889;SDS011;32625;51.080;16.970;2024-03-23T11:45:38;9.07;;;5.80;;
46889;SDS011;32625;51.080;16.970;2024-03-23T11:48:09;8.60;;;6.80;;
46889;SDS011;32625;51.080;16.970;2024-03-23T11:50:42;11.82;;;6.57;;
46889;SDS011;32625;51.080;16.970;2024-03-23T11:55:39;9.88;;;5.80;;
46889;SDS011;32625;51.080;16.970;2024-03-23T11:58:10;8.00;;;5.72;;
46889;SDS011;32625;51.080;16.970;2024-03-23T12:00:37;10.52;;;6.13;;
46889;SDS011;32625;51.080;16.970;2024-03-23T12:03:04;8.55;;;6.05;;
46889;SDS011;32625;51.080;16.970;2024-03-23T12:05:31;6.05;;;5.20;;
46889;SDS011;32625;51.080;16.970;2024-03-23T12:08:17;7.15;;;4.95;;
46889;SDS011;32625;51.080;16.970;2024-03-23T12:10:44;7.03;;;4.85;;
46889;SDS011;32625;51.080;16.970;2024-03-23T12:13:14;6.30;;;4.40;;
46889;SDS011;32625;51.080;16.970;2024-03-23T12:15:43;4.70;;;3.70;;
46889;SDS011;32625;51.080;16.970;2024-03-23T12:18:12;8.93;;;4.15;;
46889;SDS011;32625;51.080;16.970;2024-03-23T12:20:38;13.20;;;4.10;;
46889;SDS011;32625;51.080;16.970;2024-03-23T12:23:06;9.13;;;4.68;;
46889;SDS011;32625;51.080;16.970;2024-03-23T12:25:39;8.83;;;4.70;;
46889;SDS011;32625;51.080;16.970;2024-03-23T12:28:05;6.40;;;4.55;;
46889;SDS011;32625;51.080;16.970;2024-03-23T12:30:33;5.18;;;4.43;;
46889;SDS011;32625;51.080;16.970;2024-03-23T12:33:01;6.25;;;4.93;;
46889;SDS011;32625;51.080;16.970;2024-03-23T12:35:27;10.48;;;4.72;;
46889;SDS011;32625;51.080;16.970;2024-03-23T12:37:53;6.30;;;4.50;;
46889;SDS011;32625;51.080;16.970;2024-03-23T12:40:19;8.30;;;4.03;;
46889;SDS011;32625;51.080;16.970;2024-03-23T12:42:45;7.10;;;4.13;;
46889;SDS011;32625;51.080;16.970;2024-03-23T12:45:11;8.60;;;4.20;;
46889;SDS011;32625;51.080;16.970;2024-03-23T12:47:36;7.18;;;4.30;;
46889;SDS011;32625;51.080;16.970;2024-03-23T12:50:02;8.93;;;4.35;;
46889;SDS011;32625;51.080;16.970;2024-03-23T12:52:28;18.10;;;6.85;;
46889;SDS011;32625;51.080;16.970;2024-03-23T12:54:56;8.82;;;6.15;;
46889;SDS011;32625;51.080;16.970;2024-03-23T12:57:23;8.70;;;5.63;;
46889;SDS011;32625;51.080;16.970;2024-03-23T12:59:52;6.50;;;4.53;;
46889;SDS011;32625;51.080;16.970;2024-03-23T13:02:19;7.53;;;4.85;;
46889;SDS011;32625;51.080;16.970;2024-03-23T13:04:51;20.63;;;5.47;;
46889;SDS011;32625;51.080;16.970;2024-03-23T13:07:19;14.13;;;4.22;;
46889;SDS011;32625;51.080;16.970;2024-03-23T13:09:46;19.85;;;5.70;;
46889;SDS011;32625;51.080;16.970;2024-03-23T13:12:12;10.00;;;3.83;;
46889;SDS011;32625;51.080;16.970;2024-03-23T13:14:41;10.57;;;4.50;;
46889;SDS011;32625;51.080;16.970;2024-03-23T13:17:08;14.55;;;5.40;;
46889;SDS011;32625;51.080;16.970;2024-03-23T13:19:34;11.13;;;5.28;;
46889;SDS011;32625;51.080;16.970;2024-03-23T13:22:00;9.68;;;5.53;;
46889;SDS011;32625;51.080;16.970;2024-03-23T13:24:29;8.00;;;6.72;;
46889;SDS011;32625;51.080;16.970;2024-03-23T13:26:56;10.55;;;6.32;;
46889;SDS011;32625;51.080;16.970;2024-03-23T13:29:22;8.27;;;6.68;;
46889;SDS011;32625;51.080;16.970;2024-03-23T13:31:49;8.55;;;4.97;;
46889;SDS011;32625;51.080;16.970;2024-03-23T13:34:16;9.80;;;4.93;;
46889;SDS011;32625;51.080;16.970;2024-03-23T13:36:43;8.73;;;5.57;;
46889;SDS011;32625;51.080;16.970;2024-03-23T13:39:10;10.65;;;4.97;;
46889;SDS011;32625;51.080;16.970;2024-03-23T13:41:40;8.52;;;4.15;;
46889;SDS011;32625;51.080;16.970;2024-03-23T13:44:08;9.30;;;3.92;;
46889;SDS011;32625;51.080;16.970;2024-03-23T13:46:38;6.30;;;3.60;;
46889;SDS011;32625;51.080;16.970;2024-03-23T13:49:05;8.75;;;4.57;;
46889;SDS011;32625;51.080;16.970;2024-03-23T13:51:32;6.45;;;3.92;;
46889;SDS011;32625;51.080;16.970;2024-03-23T13:53:58;13.15;;;3.58;;
46889;SDS011;32625;51.080;16.970;2024-03-23T13:56:27;9.77;;;4.40;;
46889;SDS011;32625;51.080;16.970;2024-03-23T13:58:57;9.77;;;3.42;;
46889;SDS011;32625;51.080;16.970;2024-03-23T14:01:23;6.32;;;3.20;;
46889;SDS011;32625;51.080;16.970;2024-03-23T14:03:50;7.65;;;3.67;;
46889;SDS011;32625;51.080;16.970;2024-03-23T14:06:16;3.22;;;2.05;;
46889;SDS011;32625;51.080;16.970;2024-03-23T14:08:42;2.83;;;1.80;;
46889;SDS011;32625;51.080;16.970;2024-03-23T14:11:09;2.17;;;1.70;;
46889;SDS011;32625;51.080;16.970;2024-03-23T14:13:35;4.40;;;1.70;;
46889;SDS011;32625;51.080;16.970;2024-03-23T14:16:01;2.88;;;1.60;;
46889;SDS011;32625;51.080;16.970;2024-03-23T14:18:28;4.82;;;1.45;;
46889;SDS011;32625;51.080;16.970;2024-03-23T14:20:58;3.33;;;1.85;;
46889;SDS011;32625;51.080;16.970;2024-03-23T14:23:25;4.90;;;1.70;;
46889;SDS011;32625;51.080;16.970;2024-03-23T14:26:00;2.80;;;1.80;;
46889;SDS011;32625;51.080;16.970;2024-03-23T14:28:26;1.80;;;1.20;;
46889;SDS011;32625;51.080;16.970;2024-03-23T14:30:55;3.72;;;1.20;;
46889;SDS011;32625;51.080;16.970;2024-03-23T14:33:21;1.48;;;1.00;;
46889;SDS011;32625;51.080;16.970;2024-03-23T14:35:51;3.33;;;1.25;;
46889;SDS011;32625;51.080;16.970;2024-03-23T14:38:22;1.45;;;0.93;;
46889;SDS011;32625;51.080;16.970;2024-03-23T14:40:48;1.30;;;0.85;;
46889;SDS011;32625;51.080;16.970;2024-03-23T14:43:15;2.10;;;1.05;;
46889;SDS011;32625;51.080;16.970;2024-03-23T14:45:49;3.30;;;1.23;;
46889;SDS011;32625;51.080;16.970;2024-03-23T14:48:38;3.97;;;1.45;;
46889;SDS011;32625;51.080;16.970;2024-03-23T14:51:04;2.03;;;1.23;;
46889;SDS011;32625;51.080;16.970;2024-03-23T14:53:34;3.53;;;1.23;;
46889;SDS011;32625;51.080;16.970;2024-03-23T14:56:01;1.92;;;1.20;;
46889;SDS011;32625;51.080;16.970;2024-03-23T14:58:28;2.08;;;1.55;;
46889;SDS011;32625;51.080;16.970;2024-03-23T15:01:04;2.92;;;2.20;;
46889;SDS011;32625;51.080;16.970;2024-03-23T15:03:38;2.17;;;1.92;;
46889;SDS011;32625;51.080;16.970;2024-03-23T15:06:05;3.70;;;1.80;;
46889;SDS011;32625;51.080;16.970;2024-03-23T15:08:31;3.40;;;2.20;;
46889;SDS011;32625;51.080;16.970;2024-03-23T15:11:01;2.65;;;2.03;;
46889;SDS011;32625;51.080;16.970;2024-03-23T15:13:36;4.55;;;1.80;;
46889;SDS011;32625;51.080;16.970;2024-03-23T15:16:03;2.20;;;1.60;;
46889;SDS011;32625;51.080;16.970;2024-03-23T15:18:30;3.33;;;1.70;;
46889;SDS011;32625;51.080;16.970;2024-03-23T15:21:02;1.60;;;1.45;;
46889;SDS011;32625;51.080;16.970;2024-03-23T15:23:30;1.92;;;1.50;;
46889;SDS011;32625;51.080;16.970;2024-03-23T15:25:57;1.58;;;1.40;;
46889;SDS011;32625;51.080;16.970;2024-03-23T15:28:24;2.78;;;1.20;;
46889;SDS011;32625;51.080;16.970;2024-03-23T15:31:03;3.35;;;1.35;;
46889;SDS011;32625;51.080;16.970;2024-03-23T15:33:30;2.88;;;1.63;;
46889;SDS011;32625;51.080;16.970;2024-03-23T15:35:59;2.58;;;1.90;;